Terminal Aerodrome Forecast
Issued by NWS Pueblo, CO

Home | Current Version | Previous Version | Text Only | Print | Product List | Glossary On
Versions: 1 2 3 4 5 6 7 8 9 10 11 12 13 14 15 16 17 18 19 20 21 22 23 24 25 26 27 28 29 30 31 32 33 34 35 36 37 38 39 40 41 42
000
FTUS45 KPUB 072341
TAFALS
TAF
KALS 072341Z 0800/0824 16009KT P6SM VCTS FEW035 SCT100CB
     FM080300 18007KT P6SM SCT050 OVC080
     FM080600 16005KT P6SM SCT030 BKN050
     FM081300 18007KT P6SM SCT020 BKN040
     FM081700 22010KT P6SM VCTS SCT050CB BKN100=

USA.gov is the U.S. government's official web portal to all federal, state and local government web resources and services.